sensor_id;sensor_type;location;lat;lon;timestamp;temperature;humidity
52016;DHT22;38032;53.326;6.472;2023-04-23T00:01:14;8.80;99.90
52016;DHT22;38032;53.326;6.472;2023-04-23T00:03:43;8.80;99.90
52016;DHT22;38032;53.326;6.472;2023-04-23T00:06:10;8.70;99.90
52016;DHT22;38032;53.326;6.472;2023-04-23T00:08:39;8.70;99.90
52016;DHT22;38032;53.326;6.472;2023-04-23T00:11:05;8.60;99.90
52016;DHT22;38032;53.326;6.472;2023-04-23T00:13:32;8.60;99.90
52016;DHT22;38032;53.326;6.472;2023-04-23T00:15:58;8.50;99.90
52016;DHT22;38032;53.326;6.472;2023-04-23T00:18:24;8.60;99.90
52016;DHT22;38032;53.326;6.472;2023-04-23T00:20:50;8.50;99.90
52016;DHT22;38032;53.326;6.472;2023-04-23T00:23:16;8.40;99.90
52016;DHT22;38032;53.326;6.472;2023-04-23T00:25:42;8.50;99.90
52016;DHT22;38032;53.326;6.472;2023-04-23T00:28:08;8.50;99.90
52016;DHT22;38032;53.326;6.472;2023-04-23T00:30:34;8.40;99.90
52016;DHT22;38032;53.326;6.472;2023-04-23T00:33:00;8.30;99.90
52016;DHT22;38032;53.326;6.472;2023-04-23T00:35:26;8.40;99.90
52016;DHT22;38032;53.326;6.472;2023-04-23T00:37:52;8.30;99.90
52016;DHT22;38032;53.326;6.472;2023-04-23T00:40:18;8.30;99.90
52016;DHT22;38032;53.326;6.472;2023-04-23T00:42:45;8.30;99.90
52016;DHT22;38032;53.326;6.472;2023-04-23T00:45:11;8.20;99.90
52016;DHT22;38032;53.326;6.472;2023-04-23T00:47:39;8.20;99.90
52016;DHT22;38032;53.326;6.472;2023-04-23T00:50:06;8.20;99.90
52016;DHT22;38032;53.326;6.472;2023-04-23T00:52:32;8.10;99.90
52016;DHT22;38032;53.326;6.472;2023-04-23T00:54:59;8.20;99.90
52016;DHT22;38032;53.326;6.472;2023-04-23T00:57:25;8.20;99.90
52016;DHT22;38032;53.326;6.472;2023-04-23T00:59:51;8.20;99.90
52016;DHT22;38032;53.326;6.472;2023-04-23T01:02:19;8.30;99.90
52016;DHT22;38032;53.326;6.472;2023-04-23T01:04:47;8.10;99.90
52016;DHT22;38032;53.326;6.472;2023-04-23T01:07:16;8.20;99.90
52016;DHT22;38032;53.326;6.472;2023-04-23T01:12:08;8.20;99.90
52016;DHT22;38032;53.326;6.472;2023-04-23T01:14:36;7.90;99.90
52016;DHT22;38032;53.326;6.472;2023-04-23T01:17:03;7.90;99.90
52016;DHT22;38032;53.326;6.472;2023-04-23T01:19:29;7.90;99.90
52016;DHT22;38032;53.326;6.472;2023-04-23T01:21:55;7.90;99.90
52016;DHT22;38032;53.326;6.472;2023-04-23T01:24:26;7.90;99.90
52016;DHT22;38032;53.326;6.472;2023-04-23T01:26:53;8.00;99.90
52016;DHT22;38032;53.326;6.472;2023-04-23T01:29:20;8.00;99.90
52016;DHT22;38032;53.326;6.472;2023-04-23T01:31:47;8.10;99.90
52016;DHT22;38032;53.326;6.472;2023-04-23T01:34:14;8.10;99.90
52016;DHT22;38032;53.326;6.472;2023-04-23T01:36:40;8.10;99.90
52016;DHT22;38032;53.326;6.472;2023-04-23T01:39:08;8.20;99.90
52016;DHT22;38032;53.326;6.472;2023-04-23T01:41:34;8.20;99.90
52016;DHT22;38032;53.326;6.472;2023-04-23T01:44:00;8.20;99.90
52016;DHT22;38032;53.326;6.472;2023-04-23T01:46:27;8.30;99.90
52016;DHT22;38032;53.326;6.472;2023-04-23T01:48:53;8.30;99.90
52016;DHT22;38032;53.326;6.472;2023-04-23T01:51:19;8.30;99.90
52016;DHT22;38032;53.326;6.472;2023-04-23T01:53:45;8.40;99.90
52016;DHT22;38032;53.326;6.472;2023-04-23T01:56:10;8.40;99.90
52016;DHT22;38032;53.326;6.472;2023-04-23T01:58:39;8.50;99.90
52016;DHT22;38032;53.326;6.472;2023-04-23T02:01:04;8.50;99.90
52016;DHT22;38032;53.326;6.472;2023-04-23T02:03:31;8.50;99.90
52016;DHT22;38032;53.326;6.472;2023-04-23T02:05:58;8.50;99.90
52016;DHT22;38032;53.326;6.472;2023-04-23T02:08:26;8.50;99.90
52016;DHT22;38032;53.326;6.472;2023-04-23T02:10:52;8.60;99.90
52016;DHT22;38032;53.326;6.472;2023-04-23T02:13:18;8.60;99.90
52016;DHT22;38032;53.326;6.472;2023-04-23T02:15:44;8.60;99.90
52016;DHT22;38032;53.326;6.472;2023-04-23T02:18:10;8.50;99.90
52016;DHT22;38032;53.326;6.472;2023-04-23T02:20:36;8.50;99.90
52016;DHT22;38032;53.326;6.472;2023-04-23T02:23:07;8.40;99.90
52016;DHT22;38032;53.326;6.472;2023-04-23T02:25:33;10.40;99.90
52016;DHT22;38032;53.326;6.472;2023-04-23T02:27:59;8.40;99.90
52016;DHT22;38032;53.326;6.472;2023-04-23T02:30:26;8.30;99.90
52016;DHT22;38032;53.326;6.472;2023-04-23T02:32:52;8.20;99.90
52016;DHT22;38032;53.326;6.472;2023-04-23T02:35:18;8.10;99.90
52016;DHT22;38032;53.326;6.472;2023-04-23T02:37:44;8.00;99.90
52016;DHT22;38032;53.326;6.472;2023-04-23T02:40:10;8.00;99.90
52016;DHT22;38032;53.326;6.472;2023-04-23T02:42:36;7.90;99.90
52016;DHT22;38032;53.326;6.472;2023-04-23T02:45:02;8.00;99.90
52016;DHT22;38032;53.326;6.472;2023-04-23T02:47:28;7.80;99.90
52016;DHT22;38032;53.326;6.472;2023-04-23T02:49:55;7.90;99.90
52016;DHT22;38032;53.326;6.472;2023-04-23T02:52:22;7.80;99.90
52016;DHT22;38032;53.326;6.472;2023-04-23T02:54:48;7.70;99.90
52016;DHT22;38032;53.326;6.472;2023-04-23T02:57:13;7.70;99.90
52016;DHT22;38032;53.326;6.472;2023-04-23T02:59:41;7.70;99.90
52016;DHT22;38032;53.326;6.472;2023-04-23T03:04:33;7.70;99.90
52016;DHT22;38032;53.326;6.472;2023-04-23T03:07:00;7.60;99.90
52016;DHT22;38032;53.326;6.472;2023-04-23T03:09:25;7.60;99.90
52016;DHT22;38032;53.326;6.472;2023-04-23T03:11:51;7.60;99.90
52016;DHT22;38032;53.326;6.472;2023-04-23T03:14:17;7.60;99.90
52016;DHT22;38032;53.326;6.472;2023-04-23T03:16:43;7.70;99.90
52016;DHT22;38032;53.326;6.472;2023-04-23T03:19:09;7.50;99.90
52016;DHT22;38032;53.326;6.472;2023-04-23T03:21:35;7.40;99.90
52016;DHT22;38032;53.326;6.472;2023-04-23T03:24:01;7.50;99.90
52016;DHT22;38032;53.326;6.472;2023-04-23T03:26:27;7.40;99.90
52016;DHT22;38032;53.326;6.472;2023-04-23T03:28:52;7.40;99.90
52016;DHT22;38032;53.326;6.472;2023-04-23T03:31:18;7.50;99.90
52016;DHT22;38032;53.326;6.472;2023-04-23T03:33:44;7.40;99.90
52016;DHT22;38032;53.326;6.472;2023-04-23T03:36:10;7.40;99.90
52016;DHT22;38032;53.326;6.472;2023-04-23T03:38:36;7.40;99.90
52016;DHT22;38032;53.326;6.472;2023-04-23T03:41:02;7.40;99.90
52016;DHT22;38032;53.326;6.472;2023-04-23T03:43:28;7.40;99.90
52016;DHT22;38032;53.326;6.472;2023-04-23T03:45:54;7.40;99.90
52016;DHT22;38032;53.326;6.472;2023-04-23T03:48:20;7.40;99.90
52016;DHT22;38032;53.326;6.472;2023-04-23T03:50:46;7.50;99.90
52016;DHT22;38032;53.326;6.472;2023-04-23T03:53:12;7.50;99.90
52016;DHT22;38032;53.326;6.472;2023-04-23T03:55:38;7.50;99.90
52016;DHT22;38032;53.326;6.472;2023-04-23T03:58:03;7.60;99.90
52016;DHT22;38032;53.326;6.472;2023-04-23T04:00:29;7.50;99.90
52016;DHT22;38032;53.326;6.472;2023-04-23T04:02:55;7.60;99.90
52016;DHT22;38032;53.326;6.472;2023-04-23T04:05:22;7.60;99.90
52016;DHT22;38032;53.326;6.472;2023-04-23T04:07:47;7.60;99.90
52016;DHT22;38032;53.326;6.472;2023-04-23T04:10:14;7.60;99.90
52016;DHT22;38032;53.326;6.472;2023-04-23T04:12:40;7.70;99.90
52016;DHT22;38032;53.326;6.472;2023-04-23T04:15:07;7.70;99.90
52016;DHT22;38032;53.326;6.472;2023-04-23T04:17:33;7.70;99.90
52016;DHT22;38032;53.326;6.472;2023-04-23T04:19:59;7.70;99.90
52016;DHT22;38032;53.326;6.472;2023-04-23T04:22:25;7.70;99.90
52016;DHT22;38032;53.326;6.472;2023-04-23T04:24:50;7.80;99.90
52016;DHT22;38032;53.326;6.472;2023-04-23T04:27:17;7.70;99.90
52016;DHT22;38032;53.326;6.472;2023-04-23T04:29:43;7.80;99.90
52016;DHT22;38032;53.326;6.472;2023-04-23T04:32:09;7.80;99.90
52016;DHT22;38032;53.326;6.472;2023-04-23T04:34:36;7.70;99.90
52016;DHT22;38032;53.326;6.472;2023-04-23T04:37:03;7.80;99.90
52016;DHT22;38032;53.326;6.472;2023-04-23T04:39:28;7.80;99.90
52016;DHT22;38032;53.326;6.472;2023-04-23T04:41:55;7.80;99.90
52016;DHT22;38032;53.326;6.472;2023-04-23T04:44:22;7.90;99.90
52016;DHT22;38032;53.326;6.472;2023-04-23T04:46:48;7.80;99.90
52016;DHT22;38032;53.326;6.472;2023-04-23T04:49:13;7.80;99.90
52016;DHT22;38032;53.326;6.472;2023-04-23T04:51:40;7.90;99.90
52016;DHT22;38032;53.326;6.472;2023-04-23T04:54:06;7.90;99.90
52016;DHT22;38032;53.326;6.472;2023-04-23T04:56:33;8.00;99.90
52016;DHT22;38032;53.326;6.472;2023-04-23T04:59:00;8.00;99.90
52016;DHT22;38032;53.326;6.472;2023-04-23T05:01:28;8.10;99.90
52016;DHT22;38032;53.326;6.472;2023-04-23T05:03:54;8.10;99.90
52016;DHT22;38032;53.326;6.472;2023-04-23T05:06:21;8.00;99.90
52016;DHT22;38032;53.326;6.472;2023-04-23T05:08:47;8.10;99.90
52016;DHT22;38032;53.326;6.472;2023-04-23T05:11:16;8.20;99.90
52016;DHT22;38032;53.326;6.472;2023-04-23T05:13:43;8.20;99.90
52016;DHT22;38032;53.326;6.472;2023-04-23T05:16:09;8.20;99.90
52016;DHT22;38032;53.326;6.472;2023-04-23T05:18:37;8.20;99.90
52016;DHT22;38032;53.326;6.472;2023-04-23T05:21:03;8.30;99.90
52016;DHT22;38032;53.326;6.472;2023-04-23T05:23:29;8.30;99.90
52016;DHT22;38032;53.326;6.472;2023-04-23T05:25:55;8.40;99.90
52016;DHT22;38032;53.326;6.472;2023-04-23T05:28:23;8.40;99.90
52016;DHT22;38032;53.326;6.472;2023-04-23T05:30:49;8.50;99.90
52016;DHT22;38032;53.326;6.472;2023-04-23T05:33:15;8.50;99.90
52016;DHT22;38032;53.326;6.472;2023-04-23T05:35:41;8.50;99.90
52016;DHT22;38032;53.326;6.472;2023-04-23T05:38:07;8.60;99.90
52016;DHT22;38032;53.326;6.472;2023-04-23T05:40:33;8.60;99.90
52016;DHT22;38032;53.326;6.472;2023-04-23T05:42:59;8.60;99.90
52016;DHT22;38032;53.326;6.472;2023-04-23T05:45:25;8.60;99.90
52016;DHT22;38032;53.326;6.472;2023-04-23T05:47:51;8.70;99.90
52016;DHT22;38032;53.326;6.472;2023-04-23T05:50:18;8.70;99.90
52016;DHT22;38032;53.326;6.472;2023-04-23T05:52:43;8.70;99.90
52016;DHT22;38032;53.326;6.472;2023-04-23T05:55:10;8.70;99.90
52016;DHT22;38032;53.326;6.472;2023-04-23T05:57:36;8.80;99.90
52016;DHT22;38032;53.326;6.472;2023-04-23T06:00:04;8.90;99.90
52016;DHT22;38032;53.326;6.472;2023-04-23T06:02:30;8.90;99.90
52016;DHT22;38032;53.326;6.472;2023-04-23T06:04:58;8.90;99.90
52016;DHT22;38032;53.326;6.472;2023-04-23T06:07:24;9.00;99.90
52016;DHT22;38032;53.326;6.472;2023-04-23T06:09:50;9.00;99.90
52016;DHT22;38032;53.326;6.472;2023-04-23T06:12:16;9.00;99.90
52016;DHT22;38032;53.326;6.472;2023-04-23T06:14:42;9.10;99.90
52016;DHT22;38032;53.326;6.472;2023-04-23T06:17:08;9.10;99.90
52016;DHT22;38032;53.326;6.472;2023-04-23T06:19:34;9.10;99.90
52016;DHT22;38032;53.326;6.472;2023-04-23T06:22:00;9.20;99.90
52016;DHT22;38032;53.326;6.472;2023-04-23T06:24:26;9.30;99.90
52016;DHT22;38032;53.326;6.472;2023-04-23T06:26:51;9.30;99.90
52016;DHT22;38032;53.326;6.472;2023-04-23T06:29:17;9.40;99.90
52016;DHT22;38032;53.326;6.472;2023-04-23T06:31:43;9.40;99.90
52016;DHT22;38032;53.326;6.472;2023-04-23T06:34:09;9.60;99.90
52016;DHT22;38032;53.326;6.472;2023-04-23T06:36:35;9.80;99.90
52016;DHT22;38032;53.326;6.472;2023-04-23T06:39:01;10.00;99.90
52016;DHT22;38032;53.326;6.472;2023-04-23T06:41:27;10.20;99.90
52016;DHT22;38032;53.326;6.472;2023-04-23T06:43:53;10.40;99.90
52016;DHT22;38032;53.326;6.472;2023-04-23T06:46:19;10.60;99.90
52016;DHT22;38032;53.326;6.472;2023-04-23T06:48:44;10.70;99.90
52016;DHT22;38032;53.326;6.472;2023-04-23T06:51:11;10.70;99.90
52016;DHT22;38032;53.326;6.472;2023-04-23T06:53:37;10.80;99.90
52016;DHT22;38032;53.326;6.472;2023-04-23T06:56:03;11.30;99.90
52016;DHT22;38032;53.326;6.472;2023-04-23T06:58:28;12.00;99.90
52016;DHT22;38032;53.326;6.472;2023-04-23T07:00:57;12.80;99.90
52016;DHT22;38032;53.326;6.472;2023-04-23T07:03:26;13.80;99.90
52016;DHT22;38032;53.326;6.472;2023-04-23T07:05:53;14.60;99.90
52016;DHT22;38032;53.326;6.472;2023-04-23T07:08:19;15.50;99.90
52016;DHT22;38032;53.326;6.472;2023-04-23T07:10:47;16.00;99.90
52016;DHT22;38032;53.326;6.472;2023-04-23T07:13:13;16.30;99.90
52016;DHT22;38032;53.326;6.472;2023-04-23T07:15:39;16.60;99.90
52016;DHT22;38032;53.326;6.472;2023-04-23T07:18:06;16.70;99.90
52016;DHT22;38032;53.326;6.472;2023-04-23T07:20:32;17.10;99.90
52016;DHT22;38032;53.326;6.472;2023-04-23T07:22:58;17.30;99.90
52016;DHT22;38032;53.326;6.472;2023-04-23T07:25:25;17.30;99.90
52016;DHT22;38032;53.326;6.472;2023-04-23T07:27:52;17.30;99.90
52016;DHT22;38032;53.326;6.472;2023-04-23T07:30:19;17.10;99.90
52016;DHT22;38032;53.326;6.472;2023-04-23T07:32:45;17.10;99.90
52016;DHT22;38032;53.326;6.472;2023-04-23T07:35:11;17.10;99.90
52016;DHT22;38032;53.326;6.472;2023-04-23T07:37:37;16.90;99.90
52016;DHT22;38032;53.326;6.472;2023-04-23T07:40:04;16.70;99.90
52016;DHT22;38032;53.326;6.472;2023-04-23T07:42:31;16.50;99.90
52016;DHT22;38032;53.326;6.472;2023-04-23T07:44:56;16.30;99.90
52016;DHT22;38032;53.326;6.472;2023-04-23T07:47:22;16.00;99.90
52016;DHT22;38032;53.326;6.472;2023-04-23T07:49:48;15.90;99.90
52016;DHT22;38032;53.326;6.472;2023-04-23T07:52:15;15.80;99.90
52016;DHT22;38032;53.326;6.472;2023-04-23T07:54:42;15.80;99.90
52016;DHT22;38032;53.326;6.472;2023-04-23T07:57:08;15.70;99.90
52016;DHT22;38032;53.326;6.472;2023-04-23T07:59:36;15.80;99.90
52016;DHT22;38032;53.326;6.472;2023-04-23T08:02:04;16.30;99.90
52016;DHT22;38032;53.326;6.472;2023-04-23T08:04:30;16.80;99.90
52016;DHT22;38032;53.326;6.472;2023-04-23T08:06:56;17.30;99.90
52016;DHT22;38032;53.326;6.472;2023-04-23T08:09:22;17.60;99.90
52016;DHT22;38032;53.326;6.472;2023-04-23T08:11:47;17.70;99.90
52016;DHT22;38032;53.326;6.472;2023-04-23T08:16:39;18.10;99.90
52016;DHT22;38032;53.326;6.472;2023-04-23T08:19:05;18.90;99.90
52016;DHT22;38032;53.326;6.472;2023-04-23T08:21:32;19.20;99.90
52016;DHT22;38032;53.326;6.472;2023-04-23T08:26:24;20.20;99.90
52016;DHT22;38032;53.326;6.472;2023-04-23T08:28:50;20.50;99.90
52016;DHT22;38032;53.326;6.472;2023-04-23T08:31:16;20.80;99.90
52016;DHT22;38032;53.326;6.472;2023-04-23T08:33:42;21.10;99.30
52016;DHT22;38032;53.326;6.472;2023-04-23T08:36:08;21.40;98.40
52016;DHT22;38032;53.326;6.472;2023-04-23T08:38:34;21.30;98.00
52016;DHT22;38032;53.326;6.472;2023-04-23T08:41:00;21.30;98.00
52016;DHT22;38032;53.326;6.472;2023-04-23T08:43:38;21.40;97.50
52016;DHT22;38032;53.326;6.472;2023-04-23T08:46:11;21.30;96.80
52016;DHT22;38032;53.326;6.472;2023-04-23T08:48:39;21.40;96.30
52016;DHT22;38032;53.326;6.472;2023-04-23T08:51:08;21.50;96.10
52016;DHT22;38032;53.326;6.472;2023-04-23T08:53:36;21.70;96.40
52016;DHT22;38032;53.326;6.472;2023-04-23T08:56:04;21.90;96.50
52016;DHT22;38032;53.326;6.472;2023-04-23T08:58:32;22.50;95.20
52016;DHT22;38032;53.326;6.472;2023-04-23T09:00:58;23.10;93.10
52016;DHT22;38032;53.326;6.472;2023-04-23T09:03:25;23.50;91.20
52016;DHT22;38032;53.326;6.472;2023-04-23T09:05:51;23.20;89.10
52016;DHT22;38032;53.326;6.472;2023-04-23T09:08:21;23.10;89.80
52016;DHT22;38032;53.326;6.472;2023-04-23T09:10:47;23.20;88.50
52016;DHT22;38032;53.326;6.472;2023-04-23T09:13:15;23.60;87.50
52016;DHT22;38032;53.326;6.472;2023-04-23T09:15:41;24.20;94.70
52016;DHT22;38032;53.326;6.472;2023-04-23T09:18:09;24.50;92.90
52016;DHT22;38032;53.326;6.472;2023-04-23T09:20:35;25.00;91.00
52016;DHT22;38032;53.326;6.472;2023-04-23T09:23:06;25.80;80.70
52016;DHT22;38032;53.326;6.472;2023-04-23T09:25:33;26.00;77.80
52016;DHT22;38032;53.326;6.472;2023-04-23T09:27:59;26.80;75.20
52016;DHT22;38032;53.326;6.472;2023-04-23T09:30:26;27.30;73.20
52016;DHT22;38032;53.326;6.472;2023-04-23T09:32:52;27.20;71.40
52016;DHT22;38032;53.326;6.472;2023-04-23T09:35:19;27.00;70.20
52016;DHT22;38032;53.326;6.472;2023-04-23T09:37:47;26.90;69.90
52016;DHT22;38032;53.326;6.472;2023-04-23T09:40:15;27.30;69.80
52016;DHT22;38032;53.326;6.472;2023-04-23T09:42:47;27.30;68.00
52016;DHT22;38032;53.326;6.472;2023-04-23T09:45:14;26.70;66.80
52016;DHT22;38032;53.326;6.472;2023-04-23T09:47:48;26.30;67.90
52016;DHT22;38032;53.326;6.472;2023-04-23T09:50:14;25.60;67.50
52016;DHT22;38032;53.326;6.472;2023-04-23T09:52:40;24.90;69.30
52016;DHT22;38032;53.326;6.472;2023-04-23T09:55:06;24.20;70.30
52016;DHT22;38032;53.326;6.472;2023-04-23T09:57:37;23.70;78.30
52016;DHT22;38032;53.326;6.472;2023-04-23T10:00:15;23.30;74.60
52016;DHT22;38032;53.326;6.472;2023-04-23T10:02:48;23.20;77.10
52016;DHT22;38032;53.326;6.472;2023-04-23T10:05:15;23.70;79.60
52016;DHT22;38032;53.326;6.472;2023-04-23T10:07:43;24.20;78.10
52016;DHT22;38032;53.326;6.472;2023-04-23T10:10:10;24.90;75.60
52016;DHT22;38032;53.326;6.472;2023-04-23T10:12:36;25.40;73.90
52016;DHT22;38032;53.326;6.472;2023-04-23T10:15:04;25.90;73.20
52016;DHT22;38032;53.326;6.472;2023-04-23T10:17:30;26.20;70.90
52016;DHT22;38032;53.326;6.472;2023-04-23T10:19:58;26.10;70.30
52016;DHT22;38032;53.326;6.472;2023-04-23T10:22:28;26.10;69.20
52016;DHT22;38032;53.326;6.472;2023-04-23T10:24:55;25.70;68.00
52016;DHT22;38032;53.326;6.472;2023-04-23T10:27:28;25.20;68.30
52016;DHT22;38032;53.326;6.472;2023-04-23T10:29:56;24.90;69.50
52016;DHT22;38032;53.326;6.472;2023-04-23T10:32:22;24.60;69.70
52016;DHT22;38032;53.326;6.472;2023-04-23T10:34:49;24.40;70.30
52016;DHT22;38032;53.326;6.472;2023-04-23T10:37:16;24.40;71.30
52016;DHT22;38032;53.326;6.472;2023-04-23T10:39:46;24.80;72.80
52016;DHT22;38032;53.326;6.472;2023-04-23T10:42:15;25.20;72.60
52016;DHT22;38032;53.326;6.472;2023-04-23T10:44:42;24.90;70.80
52016;DHT22;38032;53.326;6.472;2023-04-23T10:47:13;24.70;70.60
52016;DHT22;38032;53.326;6.472;2023-04-23T10:49:40;24.50;70.10
52016;DHT22;38032;53.326;6.472;2023-04-23T10:52:11;24.20;70.90
52016;DHT22;38032;53.326;6.472;2023-04-23T10:54:41;24.00;71.50
52016;DHT22;38032;53.326;6.472;2023-04-23T10:57:08;24.10;72.10
52016;DHT22;38032;53.326;6.472;2023-04-23T10:59:37;24.30;72.50
52016;DHT22;38032;53.326;6.472;2023-04-23T11:02:07;24.40;72.60
52016;DHT22;38032;53.326;6.472;2023-04-23T11:04:35;24.20;71.80
52016;DHT22;38032;53.326;6.472;2023-04-23T11:07:08;23.90;71.00
52016;DHT22;38032;53.326;6.472;2023-04-23T11:09:39;23.60;70.50
52016;DHT22;38032;53.326;6.472;2023-04-23T11:12:08;23.20;71.20
52016;DHT22;38032;53.326;6.472;2023-04-23T11:17:06;22.90;75.60
52016;DHT22;38032;53.326;6.472;2023-04-23T11:19:39;23.10;79.10
52016;DHT22;38032;53.326;6.472;2023-04-23T11:22:16;23.40;76.70
52016;DHT22;38032;53.326;6.472;2023-04-23T11:24:45;23.40;75.50
52016;DHT22;38032;53.326;6.472;2023-04-23T11:27:13;23.50;75.40
52016;DHT22;38032;53.326;6.472;2023-04-23T11:29:40;23.60;74.70
52016;DHT22;38032;53.326;6.472;2023-04-23T11:32:07;23.70;74.40
52016;DHT22;38032;53.326;6.472;2023-04-23T11:34:40;23.70;74.30
52016;DHT22;38032;53.326;6.472;2023-04-23T11:37:09;23.70;74.80
52016;DHT22;38032;53.326;6.472;2023-04-23T11:39:36;23.60;72.80
52016;DHT22;38032;53.326;6.472;2023-04-23T11:42:01;23.40;72.50
52016;DHT22;38032;53.326;6.472;2023-04-23T11:44:29;23.30;73.20
52016;DHT22;38032;53.326;6.472;2023-04-23T11:46:59;23.20;72.70
52016;DHT22;38032;53.326;6.472;2023-04-23T11:49:26;23.10;72.80
52016;DHT22;38032;53.326;6.472;2023-04-23T11:51:52;22.80;72.20
52016;DHT22;38032;53.326;6.472;2023-04-23T11:54:18;22.60;72.30
52016;DHT22;38032;53.326;6.472;2023-04-23T11:56:52;22.40;73.40
52016;DHT22;38032;53.326;6.472;2023-04-23T11:59:18;22.40;74.70
52016;DHT22;38032;53.326;6.472;2023-04-23T12:01:46;22.30;76.30
52016;DHT22;38032;53.326;6.472;2023-04-23T12:04:17;22.40;78.20
52016;DHT22;38032;53.326;6.472;2023-04-23T12:06:45;22.50;78.80
52016;DHT22;38032;53.326;6.472;2023-04-23T12:09:12;22.50;78.70
52016;DHT22;38032;53.326;6.472;2023-04-23T12:11:39;22.40;76.60
52016;DHT22;38032;53.326;6.472;2023-04-23T12:14:06;22.30;75.50
52016;DHT22;38032;53.326;6.472;2023-04-23T12:16:35;22.30;75.20
52016;DHT22;38032;53.326;6.472;2023-04-23T12:19:01;22.20;74.30
52016;DHT22;38032;53.326;6.472;2023-04-23T12:21:26;22.20;75.60
52016;DHT22;38032;53.326;6.472;2023-04-23T12:23:55;22.10;75.00
52016;DHT22;38032;53.326;6.472;2023-04-23T12:26:24;22.10;74.60
52016;DHT22;38032;53.326;6.472;2023-04-23T12:28:53;22.10;76.00
52016;DHT22;38032;53.326;6.472;2023-04-23T12:31:22;22.10;76.90
52016;DHT22;38032;53.326;6.472;2023-04-23T12:34:02;22.20;77.40
52016;DHT22;38032;53.326;6.472;2023-04-23T12:36:29;22.30;77.70
52016;DHT22;38032;53.326;6.472;2023-04-23T12:41:47;22.30;76.70
52016;DHT22;38032;53.326;6.472;2023-04-23T12:44:14;22.40;75.30
52016;DHT22;38032;53.326;6.472;2023-04-23T12:46:39;22.40;73.70
52016;DHT22;38032;53.326;6.472;2023-04-23T12:49:05;22.30;72.00
52016;DHT22;38032;53.326;6.472;2023-04-23T12:51:31;22.20;71.30
52016;DHT22;38032;53.326;6.472;2023-04-23T12:53:57;22.00;70.80
52016;DHT22;38032;53.326;6.472;2023-04-23T12:56:25;21.90;72.20
52016;DHT22;38032;53.326;6.472;2023-04-23T12:58:51;22.00;73.80
52016;DHT22;38032;53.326;6.472;2023-04-23T13:01:17;22.10;75.10
52016;DHT22;38032;53.326;6.472;2023-04-23T13:03:43;22.00;72.80
52016;DHT22;38032;53.326;6.472;2023-04-23T13:06:09;22.00;73.30
52016;DHT22;38032;53.326;6.472;2023-04-23T13:08:35;21.90;70.80
52016;DHT22;38032;53.326;6.472;2023-04-23T13:11:00;21.80;70.90
52016;DHT22;38032;53.326;6.472;2023-04-23T13:13:26;21.70;71.10
52016;DHT22;38032;53.326;6.472;2023-04-23T13:15:52;21.60;70.80
52016;DHT22;38032;53.326;6.472;2023-04-23T13:18:19;21.60;71.00
52016;DHT22;38032;53.326;6.472;2023-04-23T13:20:47;21.60;70.80
52016;DHT22;38032;53.326;6.472;2023-04-23T13:23:13;21.60;70.50
52016;DHT22;38032;53.326;6.472;2023-04-23T13:25:39;21.50;70.30
52016;DHT22;38032;53.326;6.472;2023-04-23T13:28:06;21.40;71.70
52016;DHT22;38032;53.326;6.472;2023-04-23T13:30:31;21.40;70.60
52016;DHT22;38032;53.326;6.472;2023-04-23T13:32:57;21.40;71.10
52016;DHT22;38032;53.326;6.472;2023-04-23T13:35:23;21.40;71.90
52016;DHT22;38032;53.326;6.472;2023-04-23T13:37:49;21.50;71.90
52016;DHT22;38032;53.326;6.472;2023-04-23T13:40:15;21.50;72.10
52016;DHT22;38032;53.326;6.472;2023-04-23T13:42:41;21.50;72.70
52016;DHT22;38032;53.326;6.472;2023-04-23T13:45:07;21.50;72.50
52016;DHT22;38032;53.326;6.472;2023-04-23T13:47:34;21.50;70.70
52016;DHT22;38032;53.326;6.472;2023-04-23T13:50:00;21.50;70.20
52016;DHT22;38032;53.326;6.472;2023-04-23T13:52:30;21.50;69.60
52016;DHT22;38032;53.326;6.472;2023-04-23T13:54:56;21.50;70.80
52016;DHT22;38032;53.326;6.472;2023-04-23T13:57:23;21.60;71.60
52016;DHT22;38032;53.326;6.472;2023-04-23T13:59:49;21.60;70.70
52016;DHT22;38032;53.326;6.472;2023-04-23T14:02:15;21.50;70.80
52016;DHT22;38032;53.326;6.472;2023-04-23T14:04:41;21.50;70.50
52016;DHT22;38032;53.326;6.472;2023-04-23T14:07:07;21.40;71.50
52016;DHT22;38032;53.326;6.472;2023-04-23T14:09:33;21.40;72.10
52016;DHT22;38032;53.326;6.472;2023-04-23T14:11:59;21.40;71.00
52016;DHT22;38032;53.326;6.472;2023-04-23T14:14:25;21.40;71.20
52016;DHT22;38032;53.326;6.472;2023-04-23T14:16:54;21.40;70.10
52016;DHT22;38032;53.326;6.472;2023-04-23T14:19:20;23.00;70.60
52016;DHT22;38032;53.326;6.472;2023-04-23T14:21:46;21.30;69.80
52016;DHT22;38032;53.326;6.472;2023-04-23T14:24:32;21.20;69.90
52016;DHT22;38032;53.326;6.472;2023-04-23T14:26:58;21.20;69.80
52016;DHT22;38032;53.326;6.472;2023-04-23T14:29:29;21.20;70.00
52016;DHT22;38032;53.326;6.472;2023-04-23T14:31:59;21.20;71.00
52016;DHT22;38032;53.326;6.472;2023-04-23T14:34:25;21.20;71.20
52016;DHT22;38032;53.326;6.472;2023-04-23T14:36:51;21.20;70.80
52016;DHT22;38032;53.326;6.472;2023-04-23T14:39:17;21.20;70.60
52016;DHT22;38032;53.326;6.472;2023-04-23T14:41:44;21.20;69.90
52016;DHT22;38032;53.326;6.472;2023-04-23T14:44:10;21.20;70.70
52016;DHT22;38032;53.326;6.472;2023-04-23T14:46:36;21.20;71.20
52016;DHT22;38032;53.326;6.472;2023-04-23T14:49:02;21.30;71.90
52016;DHT22;38032;53.326;6.472;2023-04-23T14:51:28;21.30;71.30
52016;DHT22;38032;53.326;6.472;2023-04-23T14:53:54;21.30;71.10
52016;DHT22;38032;53.326;6.472;2023-04-23T14:56:20;21.30;70.40
52016;DHT22;38032;53.326;6.472;2023-04-23T14:58:46;21.40;69.90
52016;DHT22;38032;53.326;6.472;2023-04-23T15:01:12;21.40;69.50
52016;DHT22;38032;53.326;6.472;2023-04-23T15:03:38;21.30;69.10
52016;DHT22;38032;53.326;6.472;2023-04-23T15:06:05;21.10;70.90
52016;DHT22;38032;53.326;6.472;2023-04-23T15:08:32;21.00;88.70
52016;DHT22;38032;53.326;6.472;2023-04-23T15:13:42;20.70;71.80
52016;DHT22;38032;53.326;6.472;2023-04-23T15:16:18;20.70;72.40
52016;DHT22;38032;53.326;6.472;2023-04-23T15:18:48;20.60;73.00
52016;DHT22;38032;53.326;6.472;2023-04-23T15:21:14;20.60;71.80
52016;DHT22;38032;53.326;6.472;2023-04-23T15:23:40;20.50;71.30
52016;DHT22;38032;53.326;6.472;2023-04-23T15:26:07;20.40;72.50
52016;DHT22;38032;53.326;6.472;2023-04-23T15:28:33;20.40;73.00
52016;DHT22;38032;53.326;6.472;2023-04-23T15:30:59;20.40;74.30
52016;DHT22;38032;53.326;6.472;2023-04-23T15:33:25;20.30;75.80
52016;DHT22;38032;53.326;6.472;2023-04-23T15:35:51;20.30;76.70
52016;DHT22;38032;53.326;6.472;2023-04-23T15:38:17;20.30;75.10
52016;DHT22;38032;53.326;6.472;2023-04-23T15:40:43;20.30;74.60
52016;DHT22;38032;53.326;6.472;2023-04-23T15:43:11;20.20;74.20
52016;DHT22;38032;53.326;6.472;2023-04-23T15:45:38;20.20;73.10
52016;DHT22;38032;53.326;6.472;2023-04-23T15:48:04;20.20;73.90
52016;DHT22;38032;53.326;6.472;2023-04-23T15:50:30;20.20;74.90
52016;DHT22;38032;53.326;6.472;2023-04-23T15:52:56;20.10;73.60